sensor_id;sensor_type;location;lat;lon;timestamp;temperature;humidity
4749;DHT22;2388;53.582;9.962;2023-11-19T00:00:26;5.70;99.90
4749;DHT22;2388;53.582;9.962;2023-11-19T00:02:52;5.70;99.90
4749;DHT22;2388;53.582;9.962;2023-11-19T00:05:18;5.70;99.90
4749;DHT22;2388;53.582;9.962;2023-11-19T00:07:43;5.70;99.90
4749;DHT22;2388;53.582;9.962;2023-11-19T00:10:10;5.70;99.90
4749;DHT22;2388;53.582;9.962;2023-11-19T00:12:38;5.70;99.90
4749;DHT22;2388;53.582;9.962;2023-11-19T00:15:04;5.70;99.90
4749;DHT22;2388;53.582;9.962;2023-11-19T00:17:30;5.70;99.90
4749;DHT22;2388;53.582;9.962;2023-11-19T00:19:55;5.70;99.90
4749;DHT22;2388;53.582;9.962;2023-11-19T00:22:21;5.70;99.90
4749;DHT22;2388;53.582;9.962;2023-11-19T00:24:47;5.70;99.90
4749;DHT22;2388;53.582;9.962;2023-11-19T00:27:12;5.70;99.90
4749;DHT22;2388;53.582;9.962;2023-11-19T00:29:38;5.70;99.90
4749;DHT22;2388;53.582;9.962;2023-11-19T00:32:04;5.70;99.90
4749;DHT22;2388;53.582;9.962;2023-11-19T00:34:30;5.70;99.90
4749;DHT22;2388;53.582;9.962;2023-11-19T00:36:56;5.70;99.90
4749;DHT22;2388;53.582;9.962;2023-11-19T00:39:21;5.70;99.90
4749;DHT22;2388;53.582;9.962;2023-11-19T00:41:48;5.70;99.90
4749;DHT22;2388;53.582;9.962;2023-11-19T00:44:13;5.70;99.90
4749;DHT22;2388;53.582;9.962;2023-11-19T00:46:39;5.70;99.90
4749;DHT22;2388;53.582;9.962;2023-11-19T00:49:05;5.70;99.90
4749;DHT22;2388;53.582;9.962;2023-11-19T00:51:30;5.70;99.90
4749;DHT22;2388;53.582;9.962;2023-11-19T00:53:57;5.70;99.90
4749;DHT22;2388;53.582;9.962;2023-11-19T00:56:22;5.70;99.90
4749;DHT22;2388;53.582;9.962;2023-11-19T00:58:48;5.70;99.90
4749;DHT22;2388;53.582;9.962;2023-11-19T01:01:13;5.70;99.90
4749;DHT22;2388;53.582;9.962;2023-11-19T01:03:39;5.80;99.90
4749;DHT22;2388;53.582;9.962;2023-11-19T01:06:05;5.70;99.90
4749;DHT22;2388;53.582;9.962;2023-11-19T01:08:30;5.80;99.90
4749;DHT22;2388;53.582;9.962;2023-11-19T01:10:57;5.80;99.90
4749;DHT22;2388;53.582;9.962;2023-11-19T01:13:22;5.80;99.90
4749;DHT22;2388;53.582;9.962;2023-11-19T01:15:48;5.70;99.90
4749;DHT22;2388;53.582;9.962;2023-11-19T01:18:13;5.80;99.90
4749;DHT22;2388;53.582;9.962;2023-11-19T01:20:39;5.80;99.90
4749;DHT22;2388;53.582;9.962;2023-11-19T01:23:04;5.80;99.90
4749;DHT22;2388;53.582;9.962;2023-11-19T01:25:30;5.80;99.90
4749;DHT22;2388;53.582;9.962;2023-11-19T01:27:55;5.80;99.90
4749;DHT22;2388;53.582;9.962;2023-11-19T01:30:24;5.80;99.90
4749;DHT22;2388;53.582;9.962;2023-11-19T01:32:49;5.80;99.90
4749;DHT22;2388;53.582;9.962;2023-11-19T01:35:15;5.90;99.90
4749;DHT22;2388;53.582;9.962;2023-11-19T01:37:40;5.80;99.90
4749;DHT22;2388;53.582;9.962;2023-11-19T01:40:06;5.90;99.90
4749;DHT22;2388;53.582;9.962;2023-11-19T01:42:40;5.80;99.90
4749;DHT22;2388;53.582;9.962;2023-11-19T01:45:06;5.90;99.90
4749;DHT22;2388;53.582;9.962;2023-11-19T01:47:35;5.90;99.90
4749;DHT22;2388;53.582;9.962;2023-11-19T01:50:02;5.90;99.90
4749;DHT22;2388;53.582;9.962;2023-11-19T01:52:33;5.90;99.90
4749;DHT22;2388;53.582;9.962;2023-11-19T01:54:59;5.90;99.90
4749;DHT22;2388;53.582;9.962;2023-11-19T01:57:25;5.90;99.90
4749;DHT22;2388;53.582;9.962;2023-11-19T01:59:52;5.90;99.90
4749;DHT22;2388;53.582;9.962;2023-11-19T02:02:19;5.90;99.90
4749;DHT22;2388;53.582;9.962;2023-11-19T02:04:49;6.00;99.90
4749;DHT22;2388;53.582;9.962;2023-11-19T02:07:15;6.00;99.90
4749;DHT22;2388;53.582;9.962;2023-11-19T02:09:43;6.00;99.90
4749;DHT22;2388;53.582;9.962;2023-11-19T02:12:09;6.00;99.90
4749;DHT22;2388;53.582;9.962;2023-11-19T02:14:37;6.00;99.90
4749;DHT22;2388;53.582;9.962;2023-11-19T02:17:02;6.00;99.90
4749;DHT22;2388;53.582;9.962;2023-11-19T02:19:28;6.00;99.90
4749;DHT22;2388;53.582;9.962;2023-11-19T02:21:54;6.00;99.90
4749;DHT22;2388;53.582;9.962;2023-11-19T02:24:22;6.00;99.90
4749;DHT22;2388;53.582;9.962;2023-11-19T02:27:02;6.10;99.90
4749;DHT22;2388;53.582;9.962;2023-11-19T02:29:31;6.10;99.90
4749;DHT22;2388;53.582;9.962;2023-11-19T02:31:56;6.10;99.90
4749;DHT22;2388;53.582;9.962;2023-11-19T02:34:22;6.10;99.90
4749;DHT22;2388;53.582;9.962;2023-11-19T02:36:47;6.10;99.90
4749;DHT22;2388;53.582;9.962;2023-11-19T02:39:13;6.10;99.90
4749;DHT22;2388;53.582;9.962;2023-11-19T02:41:39;6.10;99.90
4749;DHT22;2388;53.582;9.962;2023-11-19T02:44:06;6.20;99.90
4749;DHT22;2388;53.582;9.962;2023-11-19T02:46:31;6.10;99.90
4749;DHT22;2388;53.582;9.962;2023-11-19T02:48:57;6.20;99.90
4749;DHT22;2388;53.582;9.962;2023-11-19T02:51:22;6.20;99.90
4749;DHT22;2388;53.582;9.962;2023-11-19T02:53:48;6.20;99.90
4749;DHT22;2388;53.582;9.962;2023-11-19T02:56:14;6.30;99.90
4749;DHT22;2388;53.582;9.962;2023-11-19T02:58:51;6.30;99.90
4749;DHT22;2388;53.582;9.962;2023-11-19T03:01:26;6.30;99.90
4749;DHT22;2388;53.582;9.962;2023-11-19T03:03:58;6.30;99.90
4749;DHT22;2388;53.582;9.962;2023-11-19T03:06:24;6.30;99.90
4749;DHT22;2388;53.582;9.962;2023-11-19T03:08:49;6.30;99.90
4749;DHT22;2388;53.582;9.962;2023-11-19T03:11:15;6.30;99.90
4749;DHT22;2388;53.582;9.962;2023-11-19T03:13:41;6.30;99.90
4749;DHT22;2388;53.582;9.962;2023-11-19T03:16:07;6.40;99.90
4749;DHT22;2388;53.582;9.962;2023-11-19T03:18:33;6.40;99.90
4749;DHT22;2388;53.582;9.962;2023-11-19T03:20:58;6.40;99.90
4749;DHT22;2388;53.582;9.962;2023-11-19T03:23:24;6.40;99.90
4749;DHT22;2388;53.582;9.962;2023-11-19T03:25:53;6.40;99.90
4749;DHT22;2388;53.582;9.962;2023-11-19T03:28:19;6.40;99.90
4749;DHT22;2388;53.582;9.962;2023-11-19T03:30:44;6.50;99.90
4749;DHT22;2388;53.582;9.962;2023-11-19T03:33:10;6.50;99.90
4749;DHT22;2388;53.582;9.962;2023-11-19T03:35:35;6.50;99.90
4749;DHT22;2388;53.582;9.962;2023-11-19T03:38:01;6.50;99.90
4749;DHT22;2388;53.582;9.962;2023-11-19T03:40:26;6.60;99.90
4749;DHT22;2388;53.582;9.962;2023-11-19T03:42:52;6.60;99.90
4749;DHT22;2388;53.582;9.962;2023-11-19T03:45:17;6.60;99.90
4749;DHT22;2388;53.582;9.962;2023-11-19T03:47:43;6.70;99.90
4749;DHT22;2388;53.582;9.962;2023-11-19T03:50:08;6.70;99.90
4749;DHT22;2388;53.582;9.962;2023-11-19T03:52:34;6.70;99.90
4749;DHT22;2388;53.582;9.962;2023-11-19T03:55:00;6.80;99.90
4749;DHT22;2388;53.582;9.962;2023-11-19T03:57:27;6.80;99.90
4749;DHT22;2388;53.582;9.962;2023-11-19T03:59:53;6.80;99.90
4749;DHT22;2388;53.582;9.962;2023-11-19T04:02:18;6.80;99.90
4749;DHT22;2388;53.582;9.962;2023-11-19T04:04:44;6.80;99.90
4749;DHT22;2388;53.582;9.962;2023-11-19T04:07:09;6.80;99.90
4749;DHT22;2388;53.582;9.962;2023-11-19T04:09:35;6.80;99.90
4749;DHT22;2388;53.582;9.962;2023-11-19T04:12:03;6.80;99.90
4749;DHT22;2388;53.582;9.962;2023-11-19T04:14:29;6.80;99.90
4749;DHT22;2388;53.582;9.962;2023-11-19T04:16:54;6.80;99.90
4749;DHT22;2388;53.582;9.962;2023-11-19T04:19:20;6.90;99.90
4749;DHT22;2388;53.582;9.962;2023-11-19T04:21:46;6.90;99.90
4749;DHT22;2388;53.582;9.962;2023-11-19T04:24:12;6.90;99.90
4749;DHT22;2388;53.582;9.962;2023-11-19T04:26:44;6.90;99.90
4749;DHT22;2388;53.582;9.962;2023-11-19T04:29:15;6.90;99.90
4749;DHT22;2388;53.582;9.962;2023-11-19T04:31:42;6.90;99.90
4749;DHT22;2388;53.582;9.962;2023-11-19T04:34:08;6.90;99.90
4749;DHT22;2388;53.582;9.962;2023-11-19T04:36:34;6.90;99.90
4749;DHT22;2388;53.582;9.962;2023-11-19T04:39:00;6.90;99.90
4749;DHT22;2388;53.582;9.962;2023-11-19T04:41:26;6.90;99.90
4749;DHT22;2388;53.582;9.962;2023-11-19T04:43:55;7.00;99.90
4749;DHT22;2388;53.582;9.962;2023-11-19T04:46:21;7.00;99.90
4749;DHT22;2388;53.582;9.962;2023-11-19T04:48:46;7.00;99.90
4749;DHT22;2388;53.582;9.962;2023-11-19T04:51:11;7.00;99.90
4749;DHT22;2388;53.582;9.962;2023-11-19T04:53:37;7.00;99.90
4749;DHT22;2388;53.582;9.962;2023-11-19T04:56:10;7.10;99.90
4749;DHT22;2388;53.582;9.962;2023-11-19T04:58:35;7.10;99.90
4749;DHT22;2388;53.582;9.962;2023-11-19T05:01:02;7.10;99.90
4749;DHT22;2388;53.582;9.962;2023-11-19T05:03:29;7.20;99.90
4749;DHT22;2388;53.582;9.962;2023-11-19T05:05:54;7.20;99.90
4749;DHT22;2388;53.582;9.962;2023-11-19T05:08:20;7.20;99.90
4749;DHT22;2388;53.582;9.962;2023-11-19T05:10:45;7.30;99.90
4749;DHT22;2388;53.582;9.962;2023-11-19T05:13:10;7.30;99.90
4749;DHT22;2388;53.582;9.962;2023-11-19T05:15:36;7.40;99.90
4749;DHT22;2388;53.582;9.962;2023-11-19T05:18:01;7.40;99.90
4749;DHT22;2388;53.582;9.962;2023-11-19T05:20:27;7.40;99.90
4749;DHT22;2388;53.582;9.962;2023-11-19T05:22:52;7.50;99.90
4749;DHT22;2388;53.582;9.962;2023-11-19T05:25:18;7.50;99.90
4749;DHT22;2388;53.582;9.962;2023-11-19T05:27:45;7.60;99.90
4749;DHT22;2388;53.582;9.962;2023-11-19T05:30:11;7.60;99.90
4749;DHT22;2388;53.582;9.962;2023-11-19T05:32:37;7.70;99.90
4749;DHT22;2388;53.582;9.962;2023-11-19T05:35:03;7.80;99.90
4749;DHT22;2388;53.582;9.962;2023-11-19T05:37:28;7.80;99.90
4749;DHT22;2388;53.582;9.962;2023-11-19T05:39:54;7.90;99.90
4749;DHT22;2388;53.582;9.962;2023-11-19T05:42:19;8.00;99.90
4749;DHT22;2388;53.582;9.962;2023-11-19T05:44:45;8.20;99.90
4749;DHT22;2388;53.582;9.962;2023-11-19T05:47:11;8.30;99.90
4749;DHT22;2388;53.582;9.962;2023-11-19T05:49:37;8.50;99.90
4749;DHT22;2388;53.582;9.962;2023-11-19T05:52:02;8.60;99.90
4749;DHT22;2388;53.582;9.962;2023-11-19T05:54:28;8.70;99.90
4749;DHT22;2388;53.582;9.962;2023-11-19T05:56:54;8.70;99.90
4749;DHT22;2388;53.582;9.962;2023-11-19T05:59:20;8.90;99.90
4749;DHT22;2388;53.582;9.962;2023-11-19T06:01:48;9.00;99.90
4749;DHT22;2388;53.582;9.962;2023-11-19T06:04:13;9.10;99.90
4749;DHT22;2388;53.582;9.962;2023-11-19T06:06:40;9.20;99.90
4749;DHT22;2388;53.582;9.962;2023-11-19T06:09:06;9.30;99.90
4749;DHT22;2388;53.582;9.962;2023-11-19T06:11:33;9.40;99.90
4749;DHT22;2388;53.582;9.962;2023-11-19T06:13:59;9.50;99.90
4749;DHT22;2388;53.582;9.962;2023-11-19T06:16:24;9.50;99.90
4749;DHT22;2388;53.582;9.962;2023-11-19T06:18:50;9.60;99.90
4749;DHT22;2388;53.582;9.962;2023-11-19T06:21:15;9.60;99.90
4749;DHT22;2388;53.582;9.962;2023-11-19T06:23:41;9.70;99.90
4749;DHT22;2388;53.582;9.962;2023-11-19T06:26:07;9.70;99.90
4749;DHT22;2388;53.582;9.962;2023-11-19T06:28:34;9.80;99.90
4749;DHT22;2388;53.582;9.962;2023-11-19T06:30:59;9.80;99.90
4749;DHT22;2388;53.582;9.962;2023-11-19T06:33:25;9.80;99.90
4749;DHT22;2388;53.582;9.962;2023-11-19T06:35:50;9.80;99.90
4749;DHT22;2388;53.582;9.962;2023-11-19T06:38:16;9.90;99.90
4749;DHT22;2388;53.582;9.962;2023-11-19T06:40:41;9.90;99.90
4749;DHT22;2388;53.582;9.962;2023-11-19T06:43:07;9.90;99.90
4749;DHT22;2388;53.582;9.962;2023-11-19T06:45:34;9.90;99.90
4749;DHT22;2388;53.582;9.962;2023-11-19T06:48:04;10.00;99.90
4749;DHT22;2388;53.582;9.962;2023-11-19T06:50:30;10.00;99.90
4749;DHT22;2388;53.582;9.962;2023-11-19T06:52:56;10.00;99.90
4749;DHT22;2388;53.582;9.962;2023-11-19T06:55:21;10.00;99.90
4749;DHT22;2388;53.582;9.962;2023-11-19T06:57:47;10.00;99.90
4749;DHT22;2388;53.582;9.962;2023-11-19T07:00:12;10.10;99.90
4749;DHT22;2388;53.582;9.962;2023-11-19T07:02:38;10.20;99.90
4749;DHT22;2388;53.582;9.962;2023-11-19T07:05:04;10.20;99.90
4749;DHT22;2388;53.582;9.962;2023-11-19T07:07:31;10.10;99.90
4749;DHT22;2388;53.582;9.962;2023-11-19T07:09:57;10.30;99.90
4749;DHT22;2388;53.582;9.962;2023-11-19T07:12:23;10.30;99.90
4749;DHT22;2388;53.582;9.962;2023-11-19T07:14:48;10.30;99.90
4749;DHT22;2388;53.582;9.962;2023-11-19T07:17:14;10.30;99.90
4749;DHT22;2388;53.582;9.962;2023-11-19T07:19:40;10.30;99.90
4749;DHT22;2388;53.582;9.962;2023-11-19T07:22:06;10.40;99.90
4749;DHT22;2388;53.582;9.962;2023-11-19T07:24:32;10.40;99.90
4749;DHT22;2388;53.582;9.962;2023-11-19T07:26:57;10.40;99.90
4749;DHT22;2388;53.582;9.962;2023-11-19T07:29:23;10.40;99.90
4749;DHT22;2388;53.582;9.962;2023-11-19T07:31:49;10.40;99.90
4749;DHT22;2388;53.582;9.962;2023-11-19T07:34:14;10.50;99.90
4749;DHT22;2388;53.582;9.962;2023-11-19T07:36:40;10.50;99.90
4749;DHT22;2388;53.582;9.962;2023-11-19T07:39:06;10.40;99.90
4749;DHT22;2388;53.582;9.962;2023-11-19T07:41:32;10.50;99.90
4749;DHT22;2388;53.582;9.962;2023-11-19T07:43:57;10.50;99.90
4749;DHT22;2388;53.582;9.962;2023-11-19T07:46:23;10.50;99.90
4749;DHT22;2388;53.582;9.962;2023-11-19T07:48:50;10.50;99.90
4749;DHT22;2388;53.582;9.962;2023-11-19T07:51:16;10.50;99.90
4749;DHT22;2388;53.582;9.962;2023-11-19T07:53:41;10.50;99.90
4749;DHT22;2388;53.582;9.962;2023-11-19T07:56:08;10.50;99.90
4749;DHT22;2388;53.582;9.962;2023-11-19T07:58:33;10.60;99.90
4749;DHT22;2388;53.582;9.962;2023-11-19T08:00:59;10.60;99.90
4749;DHT22;2388;53.582;9.962;2023-11-19T08:03:24;10.60;99.90
4749;DHT22;2388;53.582;9.962;2023-11-19T08:05:50;10.60;99.90
4749;DHT22;2388;53.582;9.962;2023-11-19T08:08:16;10.70;99.90
4749;DHT22;2388;53.582;9.962;2023-11-19T08:10:42;10.70;99.90
4749;DHT22;2388;53.582;9.962;2023-11-19T08:13:08;10.70;99.90
4749;DHT22;2388;53.582;9.962;2023-11-19T08:15:34;10.70;99.90
4749;DHT22;2388;53.582;9.962;2023-11-19T08:17:59;10.80;99.90
4749;DHT22;2388;53.582;9.962;2023-11-19T08:20:25;10.80;99.90
4749;DHT22;2388;53.582;9.962;2023-11-19T08:22:50;10.80;99.90
4749;DHT22;2388;53.582;9.962;2023-11-19T08:25:16;10.80;99.90
4749;DHT22;2388;53.582;9.962;2023-11-19T08:27:41;10.80;99.90
4749;DHT22;2388;53.582;9.962;2023-11-19T08:30:08;10.80;99.90
4749;DHT22;2388;53.582;9.962;2023-11-19T08:32:34;10.80;99.90
4749;DHT22;2388;53.582;9.962;2023-11-19T08:35:00;10.80;99.90
4749;DHT22;2388;53.582;9.962;2023-11-19T08:37:25;10.80;99.90
4749;DHT22;2388;53.582;9.962;2023-11-19T08:39:51;10.80;99.90
4749;DHT22;2388;53.582;9.962;2023-11-19T08:42:16;10.80;99.90
4749;DHT22;2388;53.582;9.962;2023-11-19T08:44:43;10.80;99.90
4749;DHT22;2388;53.582;9.962;2023-11-19T08:47:10;10.80;99.90
4749;DHT22;2388;53.582;9.962;2023-11-19T08:49:36;10.80;99.90
4749;DHT22;2388;53.582;9.962;2023-11-19T08:52:02;10.80;99.90
4749;DHT22;2388;53.582;9.962;2023-11-19T08:54:27;10.90;99.90
4749;DHT22;2388;53.582;9.962;2023-11-19T08:56:53;10.90;99.90
4749;DHT22;2388;53.582;9.962;2023-11-19T08:59:18;11.10;99.90
4749;DHT22;2388;53.582;9.962;2023-11-19T09:01:44;11.20;99.90
4749;DHT22;2388;53.582;9.962;2023-11-19T09:04:10;11.30;99.90
4749;DHT22;2388;53.582;9.962;2023-11-19T09:06:36;11.30;99.90
4749;DHT22;2388;53.582;9.962;2023-11-19T09:09:01;11.30;99.90
4749;DHT22;2388;53.582;9.962;2023-11-19T09:11:29;11.30;99.90
4749;DHT22;2388;53.582;9.962;2023-11-19T09:13:54;11.40;99.90
4749;DHT22;2388;53.582;9.962;2023-11-19T09:16:20;11.40;99.90
4749;DHT22;2388;53.582;9.962;2023-11-19T09:18:45;11.50;99.90
4749;DHT22;2388;53.582;9.962;2023-11-19T09:21:11;11.40;99.90
4749;DHT22;2388;53.582;9.962;2023-11-19T09:23:37;11.40;99.90
4749;DHT22;2388;53.582;9.962;2023-11-19T09:26:05;11.30;99.90
4749;DHT22;2388;53.582;9.962;2023-11-19T09:28:30;11.30;99.90
4749;DHT22;2388;53.582;9.962;2023-11-19T09:30:56;11.30;99.90
4749;DHT22;2388;53.582;9.962;2023-11-19T09:33:21;11.30;99.90
4749;DHT22;2388;53.582;9.962;2023-11-19T09:35:47;11.30;99.90
4749;DHT22;2388;53.582;9.962;2023-11-19T09:38:15;11.20;99.90
4749;DHT22;2388;53.582;9.962;2023-11-19T09:40:40;11.30;99.90
4749;DHT22;2388;53.582;9.962;2023-11-19T09:43:07;11.20;99.90
4749;DHT22;2388;53.582;9.962;2023-11-19T09:45:51;11.30;99.90
4749;DHT22;2388;53.582;9.962;2023-11-19T09:48:18;11.30;99.90
4749;DHT22;2388;53.582;9.962;2023-11-19T09:50:46;11.30;99.90
4749;DHT22;2388;53.582;9.962;2023-11-19T09:53:12;11.30;99.90
4749;DHT22;2388;53.582;9.962;2023-11-19T09:55:37;11.30;99.90
4749;DHT22;2388;53.582;9.962;2023-11-19T09:58:03;11.30;99.90
4749;DHT22;2388;53.582;9.962;2023-11-19T10:00:30;11.30;99.90
4749;DHT22;2388;53.582;9.962;2023-11-19T10:02:56;11.30;99.90
4749;DHT22;2388;53.582;9.962;2023-11-19T10:05:23;11.40;99.90
4749;DHT22;2388;53.582;9.962;2023-11-19T10:07:50;11.40;99.90
4749;DHT22;2388;53.582;9.962;2023-11-19T10:10:15;11.30;99.90
4749;DHT22;2388;53.582;9.962;2023-11-19T10:12:45;11.30;99.90
4749;DHT22;2388;53.582;9.962;2023-11-19T10:15:19;11.30;99.90
4749;DHT22;2388;53.582;9.962;2023-11-19T10:17:45;11.30;99.90
4749;DHT22;2388;53.582;9.962;2023-11-19T10:20:10;11.20;99.90
4749;DHT22;2388;53.582;9.962;2023-11-19T10:22:39;11.20;99.90
4749;DHT22;2388;53.582;9.962;2023-11-19T10:25:27;11.20;99.90
4749;DHT22;2388;53.582;9.962;2023-11-19T10:27:54;11.20;99.90
4749;DHT22;2388;53.582;9.962;2023-11-19T10:30:27;11.10;99.90
4749;DHT22;2388;53.582;9.962;2023-11-19T10:35:28;11.10;99.90
4749;DHT22;2388;53.582;9.962;2023-11-19T10:37:53;11.10;99.90
4749;DHT22;2388;53.582;9.962;2023-11-19T10:40:19;11.10;99.90
4749;DHT22;2388;53.582;9.962;2023-11-19T10:42:45;11.10;99.90
4749;DHT22;2388;53.582;9.962;2023-11-19T10:45:23;11.10;99.90
4749;DHT22;2388;53.582;9.962;2023-11-19T10:47:51;11.10;99.90
4749;DHT22;2388;53.582;9.962;2023-11-19T10:50:17;11.30;99.90
4749;DHT22;2388;53.582;9.962;2023-11-19T10:52:43;11.30;99.90
4749;DHT22;2388;53.582;9.962;2023-11-19T10:55:11;11.20;99.90
4749;DHT22;2388;53.582;9.962;2023-11-19T10:57:40;11.20;99.90
4749;DHT22;2388;53.582;9.962;2023-11-19T11:00:08;11.10;99.90
4749;DHT22;2388;53.582;9.962;2023-11-19T11:02:40;11.10;99.90
4749;DHT22;2388;53.582;9.962;2023-11-19T11:05:07;11.10;99.90
4749;DHT22;2388;53.582;9.962;2023-11-19T11:07:34;11.10;99.90
4749;DHT22;2388;53.582;9.962;2023-11-19T11:10:01;11.10;99.90
4749;DHT22;2388;53.582;9.962;2023-11-19T11:12:27;11.10;99.90
4749;DHT22;2388;53.582;9.962;2023-11-19T11:14:54;11.10;99.90
4749;DHT22;2388;53.582;9.962;2023-11-19T11:17:24;11.10;99.90
4749;DHT22;2388;53.582;9.962;2023-11-19T11:19:51;11.10;99.90
4749;DHT22;2388;53.582;9.962;2023-11-19T11:22:17;11.10;99.90
4749;DHT22;2388;53.582;9.962;2023-11-19T11:30:07;11.20;99.90
4749;DHT22;2388;53.582;9.962;2023-11-19T11:32:45;11.20;99.90
4749;DHT22;2388;53.582;9.962;2023-11-19T11:35:34;11.20;99.90
4749;DHT22;2388;53.582;9.962;2023-11-19T11:38:09;11.30;99.90
4749;DHT22;2388;53.582;9.962;2023-11-19T11:40:35;11.30;99.90
4749;DHT22;2388;53.582;9.962;2023-11-19T11:43:02;11.30;99.90
4749;DHT22;2388;53.582;9.962;2023-11-19T11:45:38;11.30;99.90
4749;DHT22;2388;53.582;9.962;2023-11-19T11:48:15;11.20;99.90
4749;DHT22;2388;53.582;9.962;2023-11-19T11:50:52;11.30;99.90
4749;DHT22;2388;53.582;9.962;2023-11-19T11:53:22;11.30;99.90
4749;DHT22;2388;53.582;9.962;2023-11-19T11:58:19;11.30;99.90
4749;DHT22;2388;53.582;9.962;2023-11-19T12:00:47;11.30;99.90
4749;DHT22;2388;53.582;9.962;2023-11-19T12:03:13;11.30;99.90
4749;DHT22;2388;53.582;9.962;2023-11-19T12:05:40;11.30;99.90
4749;DHT22;2388;53.582;9.962;2023-11-19T12:08:07;11.40;99.90
4749;DHT22;2388;53.582;9.962;2023-11-19T12:10:46;11.40;99.90
4749;DHT22;2388;53.582;9.962;2023-11-19T12:13:13;11.50;99.90
4749;DHT22;2388;53.582;9.962;2023-11-19T12:18:32;11.60;99.90
4749;DHT22;2388;53.582;9.962;2023-11-19T12:20:58;11.60;99.90
4749;DHT22;2388;53.582;9.962;2023-11-19T12:23:29;11.60;99.90
4749;DHT22;2388;53.582;9.962;2023-11-19T12:25:54;11.60;99.90
4749;DHT22;2388;53.582;9.962;2023-11-19T12:28:20;11.70;99.90
4749;DHT22;2388;53.582;9.962;2023-11-19T12:30:46;11.60;99.90
4749;DHT22;2388;53.582;9.962;2023-11-19T12:33:14;11.60;99.90
4749;DHT22;2388;53.582;9.962;2023-11-19T12:35:44;11.60;99.90
4749;DHT22;2388;53.582;9.962;2023-11-19T12:38:23;11.60;99.90
4749;DHT22;2388;53.582;9.962;2023-11-19T12:41:09;11.50;99.90
4749;DHT22;2388;53.582;9.962;2023-11-19T12:43:38;11.50;99.90
4749;DHT22;2388;53.582;9.962;2023-11-19T12:46:20;11.50;99.90
4749;DHT22;2388;53.582;9.962;2023-11-19T12:48:47;11.40;99.90
4749;DHT22;2388;53.582;9.962;2023-11-19T12:51:13;11.40;99.90
4749;DHT22;2388;53.582;9.962;2023-11-19T12:53:51;11.40;99.90
4749;DHT22;2388;53.582;9.962;2023-11-19T12:56:21;11.30;99.90
4749;DHT22;2388;53.582;9.962;2023-11-19T12:58:47;11.40;99.90
4749;DHT22;2388;53.582;9.962;2023-11-19T13:01:17;11.30;99.90
4749;DHT22;2388;53.582;9.962;2023-11-19T13:03:43;11.40;99.90
4749;DHT22;2388;53.582;9.962;2023-11-19T13:06:11;11.40;99.90
4749;DHT22;2388;53.582;9.962;2023-11-19T13:08:44;11.40;99.90
4749;DHT22;2388;53.582;9.962;2023-11-19T13:11:10;11.50;99.90
4749;DHT22;2388;53.582;9.962;2023-11-19T13:14:00;11.50;99.90
4749;DHT22;2388;53.582;9.962;2023-11-19T13:16:27;11.50;99.90
4749;DHT22;2388;53.582;9.962;2023-11-19T13:18:53;11.50;99.90
4749;DHT22;2388;53.582;9.962;2023-11-19T13:21:19;11.50;99.90
4749;DHT22;2388;53.582;9.962;2023-11-19T13:23:45;11.50;99.90
4749;DHT22;2388;53.582;9.962;2023-11-19T13:26:11;11.70;99.90
4749;DHT22;2388;53.582;9.962;2023-11-19T13:28:37;11.60;99.90
4749;DHT22;2388;53.582;9.962;2023-11-19T13:31:02;11.60;99.90
4749;DHT22;2388;53.582;9.962;2023-11-19T13:33:28;11.60;99.90
4749;DHT22;2388;53.582;9.962;2023-11-19T13:35:55;11.60;99.90
4749;DHT22;2388;53.582;9.962;2023-11-19T13:38:21;11.60;99.90
4749;DHT22;2388;53.582;9.962;2023-11-19T13:40:48;11.60;99.90
4749;DHT22;2388;53.582;9.962;2023-11-19T13:43:14;11.60;99.90
4749;DHT22;2388;53.582;9.962;2023-11-19T13:45:39;11.50;99.90
4749;DHT22;2388;53.582;9.962;2023-11-19T13:48:05;11.50;99.90
4749;DHT22;2388;53.582;9.962;2023-11-19T13:50:30;11.50;99.90
4749;DHT22;2388;53.582;9.962;2023-11-19T13:52:57;11.50;99.90
4749;DHT22;2388;53.582;9.962;2023-11-19T13:55:22;11.50;99.90
4749;DHT22;2388;53.582;9.962;2023-11-19T13:57:48;11.50;99.90
4749;DHT22;2388;53.582;9.962;2023-11-19T14:00:14;11.50;99.90
4749;DHT22;2388;53.582;9.962;2023-11-19T14:02:45;11.50;99.90
4749;DHT22;2388;53.582;9.962;2023-11-19T14:05:12;11.50;99.90
4749;DHT22;2388;53.582;9.962;2023-11-19T14:07:38;11.60;99.90
4749;DHT22;2388;53.582;9.962;2023-11-19T14:10:05;11.60;99.90
4749;DHT22;2388;53.582;9.962;2023-11-19T14:12:31;11.60;99.90
4749;DHT22;2388;53.582;9.962;2023-11-19T14:14:57;11.60;99.90
4749;DHT22;2388;53.582;9.962;2023-11-19T14:17:23;11.60;99.90
4749;DHT22;2388;53.582;9.962;2023-11-19T14:19:50;11.60;99.90
4749;DHT22;2388;53.582;9.962;2023-11-19T14:22:16;11.60;99.90
4749;DHT22;2388;53.582;9.962;2023-11-19T14:24:41;11.60;99.90
4749;DHT22;2388;53.582;9.962;2023-11-19T14:27:08;11.60;99.90
4749;DHT22;2388;53.582;9.962;2023-11-19T14:29:34;11.50;99.90
4749;DHT22;2388;53.582;9.962;2023-11-19T14:32:00;11.50;99.90
4749;DHT22;2388;53.582;9.962;2023-11-19T14:34:26;11.40;99.90
4749;DHT22;2388;53.582;9.962;2023-11-19T14:36:52;11.30;99.90
4749;DHT22;2388;53.582;9.962;2023-11-19T14:39:17;11.30;99.90
4749;DHT22;2388;53.582;9.962;2023-11-19T14:41:43;11.30;99.90
4749;DHT22;2388;53.582;9.962;2023-11-19T14:44:10;11.20;99.90
4749;DHT22;2388;53.582;9.962;2023-11-19T14:46:35;11.20;99.90
4749;DHT22;2388;53.582;9.962;2023-11-19T14:49:01;11.20;99.90
4749;DHT22;2388;53.582;9.962;2023-11-19T14:51:26;11.30;99.90
4749;DHT22;2388;53.582;9.962;2023-11-19T14:53:52;11.30;99.90
4749;DHT22;2388;53.582;9.962;2023-11-19T14:56:18;11.30;99.90
4749;DHT22;2388;53.582;9.962;2023-11-19T14:58:43;11.30;99.90
4749;DHT22;2388;53.582;9.962;2023-11-19T15:01:13;11.20;99.90
4749;DHT22;2388;53.582;9.962;2023-11-19T15:03:39;11.20;99.90
4749;DHT22;2388;53.582;9.962;2023-11-19T15:06:05;11.20;99.90
4749;DHT22;2388;53.582;9.962;2023-11-19T15:08:32;11.10;99.90
4749;DHT22;2388;53.582;9.962;2023-11-19T15:10:57;10.90;99.90
4749;DHT22;2388;53.582;9.962;2023-11-19T15:13:23;10.70;99.90
4749;DHT22;2388;53.582;9.962;2023-11-19T15:15:49;10.70;99.90
4749;DHT22;2388;53.582;9.962;2023-11-19T15:18:15;10.50;99.90
4749;DHT22;2388;53.582;9.962;2023-11-19T15:20:42;10.40;99.90
4749;DHT22;2388;53.582;9.962;2023-11-19T15:23:08;10.40;99.90
4749;DHT22;2388;53.582;9.962;2023-11-19T15:25:34;10.40;99.90
4749;DHT22;2388;53.582;9.962;2023-11-19T15:28:01;10.40;99.90
4749;DHT22;2388;53.582;9.962;2023-11-19T15:30:27;10.40;99.90
4749;DHT22;2388;53.582;9.962;2023-11-19T15:32:53;10.40;99.90
4749;DHT22;2388;53.582;9.962;2023-11-19T15:35:18;10.30;99.90
4749;DHT22;2388;53.582;9.962;2023-11-19T15:37:44;10.30;99.90
4749;DHT22;2388;53.582;9.962;2023-11-19T15:40:10;10.40;99.90
4749;DHT22;2388;53.582;9.962;2023-11-19T15:42:37;10.40;99.90
4749;DHT22;2388;53.582;9.962;2023-11-19T15:45:03;10.40;99.90
4749;DHT22;2388;53.582;9.962;2023-11-19T15:47:30;10.40;99.90
4749;DHT22;2388;53.582;9.962;2023-11-19T15:49:56;10.40;99.90
4749;DHT22;2388;53.582;9.962;2023-11-19T15:52:21;10.50;99.90
4749;DHT22;2388;53.582;9.962;2023-11-19T15:54:47;10.60;99.90
4749;DHT22;2388;53.582;9.962;2023-11-19T15:57:13;10.60;99.90
4749;DHT22;2388;53.582;9.962;2023-11-19T15:59:38;10.60;99.90
4749;DHT22;2388;53.582;9.962;2023-11-19T16:02:04;10.60;99.90
4749;DHT22;2388;53.582;9.962;2023-11-19T16:04:29;10.60;99.90
4749;DHT22;2388;53.582;9.962;2023-11-19T16:06:55;10.70;99.90
4749;DHT22;2388;53.582;9.962;2023-11-19T16:09:20;10.70;99.90
4749;DHT22;2388;53.582;9.962;2023-11-19T16:11:47;10.70;99.90
4749;DHT22;2388;53.582;9.962;2023-11-19T16:14:13;10.70;99.90
4749;DHT22;2388;53.582;9.962;2023-11-19T16:16:40;10.70;99.90
4749;DHT22;2388;53.582;9.962;2023-11-19T16:19:06;10.70;99.90